Time;durP1;ratioP1;P1;durP2;ratioP2;P2;SDS_P1;SDS_P2;PMS_P1;PMS_P2;Temp;Humidity;BMP_temperature;BMP_pressure;BME280_temperature;BME280_humidity;BME280_pressure;Samples;Min_cycle;Max_cycle;Signal;HPM_P1;HPM_P2
2022/01/30 00:01:46;;;;;;;22.37;6.50;;;6.20;99.90;;;;;;5137555;28;20502;-60
2022/01/30 00:04:18;;;;;;;21.33;5.77;;;6.20;99.90;;;;;;5137455;28;20863;-60
2022/01/30 00:06:46;;;;;;;17.93;4.80;;;6.20;99.90;;;;;;5137902;28;20743;-60
2022/01/30 00:09:20;;;;;;;15.30;5.50;;;6.10;99.90;;;;;;5136857;28;20454;-59
2022/01/30 00:11:54;;;;;;;17.53;5.47;;;6.10;99.90;;;;;;5137117;27;20462;-60
2022/01/30 00:14:30;;;;;;;22.37;6.03;;;6.10;99.90;;;;;;5141574;27;20757;-60
2022/01/30 00:17:02;;;;;;;20.77;5.93;;;6.10;99.90;;;;;;5141713;27;20465;-60
2022/01/30 00:19:37;;;;;;;20.60;5.10;;;6.10;99.90;;;;;;5140928;27;20437;-60
2022/01/30 00:22:15;;;;;;;20.20;5.83;;;6.10;99.90;;;;;;5141372;27;20462;-61
2022/01/30 00:24:50;;;;;;;28.17;6.57;;;6.10;99.90;;;;;;5141371;27;20490;-61
2022/01/30 00:27:20;;;;;;;26.07;6.50;;;6.10;99.90;;;;;;5141065;27;20493;-61
2022/01/30 00:29:47;;;;;;;16.00;5.63;;;6.10;99.90;;;;;;5141141;27;20527;-57
2022/01/30 00:32:14;;;;;;;20.40;5.47;;;6.20;99.90;;;;;;5141247;27;20511;-59
2022/01/30 00:34:44;;;;;;;26.90;6.67;;;6.20;99.90;;;;;;5141043;27;20462;-60
2022/01/30 00:37:15;;;;;;;20.53;5.87;;;6.10;99.90;;;;;;5140399;27;20508;-59
2022/01/30 00:39:41;;;;;;;15.53;5.43;;;6.10;99.90;;;;;;5141004;27;20850;-60
2022/01/30 00:42:13;;;;;;;18.70;6.80;;;6.10;99.90;;;;;;5140657;27;20486;-59
2022/01/30 00:44:40;;;;;;;18.47;6.13;;;6.10;99.90;;;;;;5141197;27;20614;-60
2022/01/30 00:47:12;;;;;;;12.57;4.33;;;6.10;99.90;;;;;;5140407;27;20505;-57
2022/01/30 00:49:40;;;;;;;18.20;5.47;;;6.10;99.90;;;;;;5140561;27;20905;-60
2022/01/30 00:52:10;;;;;;;21.67;5.43;;;6.00;99.90;;;;;;5141029;27;20462;-59
2022/01/30 00:54:37;;;;;;;19.37;5.40;;;6.00;99.90;;;;;;5140210;27;20507;-60
2022/01/30 00:57:05;;;;;;;26.70;5.10;;;5.90;99.90;;;;;;5140850;27;20861;-60
2022/01/30 00:59:33;;;;;;;20.83;5.67;;;5.90;99.90;;;;;;5140372;27;20879;-59
2022/01/30 01:02:06;;;;;;;23.93;6.00;;;5.90;99.90;;;;;;5140238;27;20458;-58
2022/01/30 01:04:33;;;;;;;19.80;6.20;;;5.80;99.90;;;;;;5140747;27;20486;-60
2022/01/30 01:07:00;;;;;;;18.47;6.10;;;5.80;99.90;;;;;;5140551;27;20437;-60
2022/01/30 01:09:35;;;;;;;18.23;5.90;;;5.80;99.90;;;;;;5140160;27;20782;-61
2022/01/30 01:23:25;;;;;;;14.57;6.07;;;5.60;99.90;;;;;;5139490;27;20450;-60
2022/01/30 01:25:52;;;;;;;32.80;7.10;;;5.60;99.90;;;;;;5139837;27;20529;-60
2022/01/30 01:28:21;;;;;;;18.37;5.10;;;5.60;99.90;;;;;;5140164;27;20465;-60
2022/01/30 01:30:50;;;;;;;20.07;6.00;;;5.60;99.90;;;;;;5139951;27;20760;-60
2022/01/30 01:33:17;;;;;;;30.00;6.43;;;5.50;99.90;;;;;;5140273;27;20886;-60
2022/01/30 01:35:44;;;;;;;25.10;6.07;;;5.60;99.90;;;;;;5139336;27;20433;-60
2022/01/30 01:38:13;;;;;;;20.63;5.63;;;5.60;99.90;;;;;;5139910;27;20458;-60
2022/01/30 01:40:41;;;;;;;19.70;5.27;;;5.60;99.90;;;;;;5139390;27;20872;-57
2022/01/30 01:43:09;;;;;;;24.83;5.53;;;5.70;99.90;;;;;;5139258;27;20469;-60
2022/01/30 01:45:39;;;;;;;22.77;6.23;;;5.70;99.90;;;;;;5139963;27;20458;-60
2022/01/30 01:48:11;;;;;;;21.10;5.47;;;5.70;99.90;;;;;;5137936;27;20455;-60
2022/01/30 01:50:43;;;;;;;25.20;5.87;;;5.70;99.90;;;;;;5138660;27;20501;-60
2022/01/30 01:53:11;;;;;;;25.67;5.70;;;5.70;99.90;;;;;;5135706;27;20467;-60
2022/01/30 01:55:40;;;;;;;21.93;6.50;;;5.60;99.90;;;;;;5137818;27;20463;-60
2022/01/30 01:58:07;;;;;;;29.37;7.17;;;5.60;99.90;;;;;;5138068;27;20507;-60
2022/01/30 02:00:34;;;;;;;22.23;6.07;;;5.60;99.90;;;;;;5138072;27;20566;-58
2022/01/30 02:03:01;;;;;;;24.77;6.90;;;5.50;99.90;;;;;;5138490;27;20462;-61
2022/01/30 02:05:32;;;;;;;21.27;6.40;;;5.50;99.90;;;;;;5135259;27;20486;-59
2022/01/30 02:10:52;;;;;;;19.53;6.00;;;5.50;99.90;;;;;;5126385;27;20426;-61
2022/01/30 02:13:44;;;;;;;24.07;6.57;;;5.50;99.90;;;;;;5138005;27;20450;-60
2022/01/30 02:24:39;;;;;;;26.43;6.77;;;5.50;99.90;;;;;;5135647;27;20480;-59
2022/01/30 02:27:13;;;;;;;26.83;6.57;;;5.40;99.90;;;;;;5137610;27;20457;-61
2022/01/30 02:29:40;;;;;;;18.33;5.57;;;5.30;99.90;;;;;;5137724;27;20515;-58
2022/01/30 02:32:08;;;;;;;35.47;7.70;;;5.30;99.90;;;;;;5136661;27;20451;-61
2022/01/30 02:34:35;;;;;;;27.60;6.30;;;5.30;99.90;;;;;;5137696;27;20455;-61
2022/01/30 02:37:03;;;;;;;21.53;6.90;;;5.30;99.90;;;;;;5136013;27;20459;-61
2022/01/30 02:39:30;;;;;;;33.60;6.87;;;5.20;99.90;;;;;;5134727;27;20519;-61
2022/01/30 02:41:58;;;;;;;19.27;5.90;;;5.20;99.90;;;;;;5136809;27;20508;-61
2022/01/30 02:44:34;;;;;;;29.63;7.67;;;5.20;99.90;;;;;;5137188;27;20532;-61
2022/01/30 02:47:07;;;;;;;27.33;8.40;;;5.10;99.90;;;;;;5137366;27;20497;-61
2022/01/30 02:52:18;;;;;;;30.20;6.50;;;5.00;1.00;;;;;;5128965;27;20437;-61
2022/01/30 02:54:46;;;;;;;27.10;8.10;;;5.00;1.00;;;;;;5138186;27;20769;-60
2022/01/30 02:57:14;;;;;;;17.30;6.17;;;5.00;1.00;;;;;;5136852;27;20429;-60
2022/01/30 02:59:41;;;;;;;28.90;7.60;;;5.00;1.00;;;;;;5137030;27;20731;-61
2022/01/30 03:02:08;;;;;;;27.40;7.60;;;4.90;1.00;;;;;;5136786;27;20451;-60
2022/01/30 03:04:40;;;;;;;24.90;7.27;;;4.80;1.00;;;;;;5136957;27;20457;-61
2022/01/30 03:07:16;;;;;;;21.90;9.37;;;4.80;1.00;;;;;;5136956;27;20490;-61
2022/01/30 03:09:49;;;;;;;26.20;6.40;;;4.80;1.00;;;;;;5135311;27;20462;-60
2022/01/30 03:12:17;;;;;;;27.87;6.43;;;4.80;1.00;;;;;;5134401;27;20418;-61
2022/01/30 03:14:44;;;;;;;30.63;7.17;;;4.80;1.00;;;;;;5137163;28;20447;-60
2022/01/30 03:17:14;;;;;;;23.77;7.47;;;4.80;1.00;;;;;;5136475;28;20503;-57
2022/01/30 03:19:41;;;;;;;27.80;5.80;;;4.80;1.00;;;;;;5136648;28;20490;-60
2022/01/30 03:22:10;;;;;;;26.73;7.20;;;4.80;1.00;;;;;;5136771;28;20458;-60
2022/01/30 03:24:37;;;;;;;24.07;6.80;;;4.80;1.00;;;;;;5134687;28;20479;-60
2022/01/30 03:27:05;;;;;;;31.87;8.20;;;4.90;1.00;;;;;;5136931;28;20967;-60
2022/01/30 03:29:34;;;;;;;21.93;5.87;;;4.80;1.00;;;;;;5136381;28;20484;-59
2022/01/30 03:32:04;;;;;;;28.70;7.30;;;4.90;1.00;;;;;;5136682;28;20500;-60
2022/01/30 03:34:31;;;;;;;30.43;6.90;;;4.90;1.00;;;;;;5136686;28;20488;-59
2022/01/30 03:36:58;;;;;;;29.93;8.33;;;4.90;1.00;;;;;;5135314;28;20484;-58
2022/01/30 03:39:26;;;;;;;23.97;7.13;;;4.90;1.00;;;;;;5136332;28;20459;-59
2022/01/30 03:41:53;;;;;;;22.77;6.57;;;5.00;1.00;;;;;;5136259;28;20449;-60
2022/01/30 03:44:20;;;;;;;22.93;5.77;;;5.00;1.00;;;;;;5136656;28;20489;-61
2022/01/30 03:46:49;;;;;;;22.80;6.73;;;5.00;99.90;;;;;;5136749;27;20423;-60
2022/01/30 03:49:15;;;;;;;16.87;5.57;;;5.00;99.90;;;;;;5138134;27;20475;-60
2022/01/30 03:51:42;;;;;;;19.43;6.77;;;5.00;99.90;;;;;;5140468;27;20454;-61
2022/01/30 03:54:13;;;;;;;22.27;6.93;;;5.10;99.90;;;;;;5140943;27;20462;-61
2022/01/30 03:56:40;;;;;;;23.50;7.30;;;5.00;99.90;;;;;;5140881;27;20772;-61
2022/01/30 03:59:07;;;;;;;19.03;5.13;;;5.10;99.90;;;;;;5140128;27;20484;-61
2022/01/30 04:01:35;;;;;;;18.40;6.13;;;5.10;99.90;;;;;;5140123;27;20446;-60
2022/01/30 04:04:03;;;;;;;25.43;7.87;;;5.10;99.90;;;;;;5140119;27;20490;-61
2022/01/30 04:06:31;;;;;;;21.10;8.13;;;5.10;99.90;;;;;;5140452;27;20447;-60
2022/01/30 04:08:58;;;;;;;23.83;6.97;;;5.10;99.90;;;;;;5140454;27;20902;-60
2022/01/30 04:11:27;;;;;;;18.57;7.33;;;5.00;99.90;;;;;;5140237;27;20939;-60
2022/01/30 04:13:54;;;;;;;23.47;6.67;;;5.00;99.90;;;;;;5137439;27;20541;-60
2022/01/30 04:16:22;;;;;;;19.07;6.13;;;5.00;99.90;;;;;;5140343;27;20769;-60
2022/01/30 04:18:52;;;;;;;25.67;6.73;;;4.90;99.90;;;;;;5140338;27;20455;-60
2022/01/30 04:21:21;;;;;;;27.30;6.57;;;4.80;99.90;;;;;;5137781;27;20447;-60
2022/01/30 04:23:48;;;;;;;17.03;5.13;;;4.60;99.90;;;;;;5139940;27;20507;-60
2022/01/30 04:26:18;;;;;;;18.33;5.30;;;4.60;99.90;;;;;;5140266;27;20447;-61
2022/01/30 04:28:45;;;;;;;19.73;6.30;;;4.60;99.90;;;;;;5139407;27;20503;-60
2022/01/30 04:31:14;;;;;;;18.67;5.47;;;4.60;99.90;;;;;;5139742;27;20517;-61
2022/01/30 04:33:41;;;;;;;14.83;5.37;;;4.50;99.90;;;;;;5139627;27;20478;-61
2022/01/30 04:36:13;;;;;;;18.03;5.20;;;4.40;99.90;;;;;;5139700;27;20499;-60
2022/01/30 04:38:55;;;;;;;22.63;5.50;;;4.40;99.90;;;;;;5138009;27;20451;-60
2022/01/30 04:41:37;;;;;;;20.23;5.90;;;4.50;99.90;;;;;;5137565;27;20793;-61
2022/01/30 04:52:38;;;;;;;24.63;5.53;;;4.60;99.90;;;;;;5137577;27;20438;-58
2022/01/30 04:57:51;;;;;;;20.83;5.10;;;4.70;99.90;;;;;;5137439;27;20423;-59
2022/01/30 05:03:25;;;;;;;15.80;5.57;;;4.70;99.90;;;;;;5133745;27;20529;-60
2022/01/30 05:06:02;;;;;;;19.63;6.33;;;4.60;99.90;;;;;;5138699;27;20953;-58
2022/01/30 05:08:29;;;;;;;17.60;5.60;;;4.60;99.90;;;;;;5139619;27;20435;-60
2022/01/30 05:11:01;;;;;;;20.03;5.80;;;4.60;99.90;;;;;;5136138;27;20519;-59
2022/01/30 05:13:31;;;;;;;29.47;6.20;;;4.60;99.90;;;;;;5138677;27;20437;-58
2022/01/30 05:15:59;;;;;;;23.47;5.50;;;4.60;99.90;;;;;;5136707;27;20486;-59
2022/01/30 05:18:29;;;;;;;18.37;5.93;;;4.70;99.90;;;;;;5138991;27;20455;-59
2022/01/30 05:20:59;;;;;;;18.17;6.20;;;4.70;99.90;;;;;;5137473;27;20492;-59
2022/01/30 05:23:30;;;;;;;22.23;6.10;;;4.70;99.90;;;;;;5139580;27;20858;-59
2022/01/30 05:26:05;;;;;;;16.80;6.30;;;4.70;99.90;;;;;;5139981;27;20494;-60
2022/01/30 05:28:33;;;;;;;18.77;5.43;;;4.70;99.90;;;;;;5140378;27;20470;-58
2022/01/30 05:31:00;;;;;;;23.67;6.77;;;4.70;99.90;;;;;;5138120;27;20487;-58
2022/01/30 05:33:28;;;;;;;18.87;5.73;;;4.70;99.90;;;;;;5139962;27;20437;-60
2022/01/30 05:35:55;;;;;;;18.90;5.50;;;4.70;99.90;;;;;;5139428;27;20508;-59
2022/01/30 05:38:26;;;;;;;21.43;5.83;;;4.80;99.90;;;;;;5139068;27;20459;-60
2022/01/30 05:40:54;;;;;;;23.00;5.90;;;4.70;99.90;;;;;;5139295;27;20551;-59
2022/01/30 05:43:26;;;;;;;21.00;5.67;;;4.70;99.90;;;;;;5139260;27;20891;-60
2022/01/30 05:46:07;;;;;;;18.23;5.20;;;4.60;99.90;;;;;;5139543;27;20464;-57
2022/01/30 05:48:36;;;;;;;29.73;6.60;;;4.60;99.90;;;;;;5139854;27;20728;-60
2022/01/30 05:51:03;;;;;;;32.10;7.07;;;4.70;99.90;;;;;;5139742;27;20455;-60
2022/01/30 05:53:30;;;;;;;18.70;4.90;;;4.70;99.90;;;;;;5139249;27;20515;-59
2022/01/30 05:55:57;;;;;;;21.90;6.30;;;4.70;99.90;;;;;;5138908;27;20454;-60
2022/01/30 05:58:26;;;;;;;18.20;5.70;;;4.70;99.90;;;;;;5139353;27;20887;-60
2022/01/30 06:00:53;;;;;;;14.40;6.30;;;4.60;99.90;;;;;;5139040;27;20486;-58
2022/01/30 06:03:20;;;;;;;18.13;5.10;;;4.70;99.90;;;;;;5139214;27;20724;-60
2022/01/30 06:05:49;;;;;;;18.77;5.53;;;4.70;99.90;;;;;;5138952;27;20469;-60
2022/01/30 06:08:37;;;;;;;20.30;6.30;;;4.60;99.90;;;;;;5139151;27;20515;-59
2022/01/30 06:11:03;;;;;;;16.77;5.00;;;4.70;99.90;;;;;;5138215;27;20545;-60
2022/01/30 06:13:31;;;;;;;17.83;6.90;;;4.60;99.90;;;;;;5137249;27;20499;-59
2022/01/30 06:15:58;;;;;;;21.90;6.20;;;4.60;99.90;;;;;;5137506;27;20421;-60
2022/01/30 06:18:25;;;;;;;19.73;6.67;;;4.60;99.90;;;;;;5138044;27;20457;-60
2022/01/30 06:20:53;;;;;;;22.30;5.70;;;4.60;99.90;;;;;;5134092;27;20979;-60
2022/01/30 06:23:22;;;;;;;21.07;5.93;;;4.60;1.00;;;;;;5137255;27;20503;-60
2022/01/30 06:25:49;;;;;;;19.50;6.80;;;4.60;1.00;;;;;;5137768;27;20776;-60
2022/01/30 06:28:16;;;;;;;17.00;5.53;;;4.50;1.00;;;;;;5137921;27;20547;-60
2022/01/30 06:30:44;;;;;;;23.00;7.57;;;4.60;1.00;;;;;;5138864;27;20462;-58
2022/01/30 06:33:11;;;;;;;24.43;6.67;;;4.60;1.00;;;;;;5138336;27;20507;-60
2022/01/30 06:35:44;;;;;;;20.73;6.40;;;4.70;1.00;;;;;;5132812;27;20931;-55
2022/01/30 06:38:11;;;;;;;18.20;6.07;;;4.60;1.00;;;;;;5117574;28;20452;-57
2022/01/30 06:40:38;;;;;;;25.50;6.27;;;4.60;1.00;;;;;;5117719;28;20524;-60
2022/01/30 06:43:05;;;;;;;27.30;7.00;;;4.60;1.00;;;;;;5118252;28;20937;-60
2022/01/30 06:45:34;;;;;;;23.67;5.93;;;4.60;1.00;;;;;;5117628;28;20594;-60
2022/01/30 06:48:03;;;;;;;17.60;7.00;;;4.50;1.00;;;;;;5117942;28;20892;-59
2022/01/30 06:50:30;;;;;;;28.77;5.77;;;4.40;1.00;;;;;;5120501;27;20503;-59
2022/01/30 06:52:57;;;;;;;18.37;4.80;;;4.30;1.00;;;;;;5137966;27;20815;-59
2022/01/30 06:55:24;;;;;;;16.63;4.80;;;4.20;1.00;;;;;;5137846;27;20728;-58
2022/01/30 06:57:51;;;;;;;22.00;5.70;;;4.20;1.00;;;;;;5137794;27;20493;-60
2022/01/30 07:00:18;;;;;;;17.63;6.20;;;4.10;1.00;;;;;;5138346;27;20462;-60
2022/01/30 07:02:45;;;;;;;29.23;6.20;;;4.00;1.00;;;;;;5137793;27;20451;-60
2022/01/30 07:05:14;;;;;;;24.70;6.27;;;4.00;99.90;;;;;;5133952;27;20844;-60
2022/01/30 07:07:42;;;;;;;23.03;5.83;;;4.00;99.90;;;;;;5137636;27;20773;-59
2022/01/30 07:10:10;;;;;;;25.03;5.80;;;4.00;40.40;;;;;;5137487;27;20462;-58
2022/01/30 07:12:37;;;;;;;15.27;5.07;;;4.00;31.70;;;;;;5138101;27;20462;-60
2022/01/30 07:15:04;;;;;;;21.10;5.50;;;4.00;1.00;;;;;;5138483;27;20433;-59
2022/01/30 07:17:31;;;;;;;22.33;5.80;;;4.00;1.00;;;;;;5137435;28;20455;-60
2022/01/30 07:19:58;;;;;;;15.20;4.80;;;4.00;1.00;;;;;;5138090;28;20852;-60
2022/01/30 07:22:28;;;;;;;24.10;5.03;;;4.00;1.00;;;;;;5139190;27;20458;-60
2022/01/30 07:24:55;;;;;;;20.43;5.10;;;4.00;1.00;;;;;;5142734;27;20553;-60
2022/01/30 07:27:22;;;;;;;16.30;4.83;;;4.00;1.00;;;;;;5142596;27;20458;-60
2022/01/30 07:29:49;;;;;;;21.10;7.70;;;4.00;1.00;;;;;;5142354;27;20459;-58
2022/01/30 07:32:19;;;;;;;20.93;6.13;;;4.00;1.00;;;;;;5142491;27;20466;-60
2022/01/30 07:34:49;;;;;;;21.30;5.70;;;4.00;1.00;;;;;;5142306;27;20458;-57
2022/01/30 07:37:17;;;;;;;20.33;5.67;;;4.00;1.00;;;;;;5122068;27;20470;-58
2022/01/30 07:39:45;;;;;;;23.73;6.40;;;3.90;1.00;;;;;;5122479;27;20467;-60
2022/01/30 07:42:12;;;;;;;22.13;7.10;;;3.90;1.00;;;;;;5139482;27;20486;-59
2022/01/30 07:44:40;;;;;;;21.13;6.43;;;4.00;1.00;;;;;;5121445;28;20504;-59
2022/01/30 07:47:08;;;;;;;22.70;6.37;;;4.00;1.00;;;;;;5120802;28;20564;-60
2022/01/30 07:49:35;;;;;;;19.57;7.40;;;4.10;1.00;;;;;;5121051;28;20438;-60
2022/01/30 07:52:02;;;;;;;27.00;7.80;;;4.10;1.00;;;;;;5120535;28;20463;-60
2022/01/30 07:54:32;;;;;;;20.67;6.03;;;4.10;1.00;;;;;;5120735;28;20485;-60
2022/01/30 07:57:00;;;;;;;12.53;5.47;;;4.20;1.00;;;;;;5121315;28;20466;-60
2022/01/30 07:59:30;;;;;;;21.17;5.73;;;4.20;1.00;;;;;;5124097;27;20900;-61
2022/01/30 08:01:57;;;;;;;15.50;5.60;;;4.20;99.90;;;;;;5133655;27;20523;-60
2022/01/30 08:04:26;;;;;;;18.03;4.97;;;4.20;99.90;;;;;;5137625;27;20766;-60
2022/01/30 08:06:53;;;;;;;17.47;4.67;;;4.20;99.90;;;;;;5142219;27;20517;-60
2022/01/30 08:09:20;;;;;;;14.80;4.60;;;4.20;99.90;;;;;;5141518;27;20922;-60
2022/01/30 08:11:47;;;;;;;16.70;5.70;;;4.20;99.90;;;;;;5140827;27;20511;-59
2022/01/30 08:14:15;;;;;;;22.00;6.23;;;4.30;99.90;;;;;;5141435;27;20462;-59
2022/01/30 08:16:42;;;;;;;17.90;5.10;;;4.40;99.90;;;;;;5141103;27;20421;-60
2022/01/30 08:19:09;;;;;;;17.60;5.33;;;4.50;99.90;;;;;;5141369;27;20519;-60
2022/01/30 08:21:39;;;;;;;15.87;5.03;;;4.40;99.90;;;;;;5144929;27;20762;-59
2022/01/30 08:24:11;;;;;;;18.30;5.40;;;4.40;99.90;;;;;;5152137;27;20462;-60
2022/01/30 08:26:42;;;;;;;22.57;5.67;;;4.30;99.90;;;;;;5141264;27;20779;-59
2022/01/30 08:29:09;;;;;;;20.23;6.33;;;4.40;99.90;;;;;;5140958;27;20888;-59
2022/01/30 08:31:40;;;;;;;26.57;5.87;;;4.50;99.90;;;;;;5141328;27;20462;-57
2022/01/30 08:34:07;;;;;;;18.60;5.53;;;4.70;99.90;;;;;;5141148;27;20458;-59
2022/01/30 08:36:34;;;;;;;18.10;5.07;;;5.00;99.90;;;;;;5127451;27;20893;-58
2022/01/30 08:39:01;;;;;;;17.80;4.40;;;5.30;94.20;;;;;;5120064;28;20468;-58
2022/01/30 08:41:28;;;;;;;21.77;6.63;;;5.50;1.00;;;;;;5119921;28;20487;-58
2022/01/30 08:43:55;;;;;;;18.63;7.20;;;5.50;1.00;;;;;;5120390;28;20833;-58
2022/01/30 08:46:22;;;;;;;19.63;6.70;;;5.60;1.00;;;;;;5133904;27;20461;-58
2022/01/30 08:48:50;;;;;;;15.10;5.37;;;5.70;1.00;;;;;;5140287;27;20433;-59
2022/01/30 08:51:17;;;;;;;20.80;6.37;;;6.00;1.00;;;;;;5139926;27;20458;-59
2022/01/30 08:53:44;;;;;;;17.13;5.53;;;6.30;1.00;;;;;;5138636;27;20429;-60
2022/01/30 08:56:14;;;;;;;13.70;4.00;;;6.30;1.00;;;;;;5140391;27;20458;-59
2022/01/30 08:58:41;;;;;;;50.30;6.37;;;6.30;1.00;;;;;;5139434;27;20441;-57
2022/01/30 09:01:08;;;;;;;17.43;5.80;;;6.20;1.00;;;;;;5139555;27;20482;-59
2022/01/30 09:03:35;;;;;;;17.80;5.70;;;6.10;1.00;;;;;;5140302;27;20465;-60
2022/01/30 09:06:06;;;;;;;16.17;5.40;;;6.00;1.00;;;;;;5139961;27;20933;-59
2022/01/30 09:08:34;;;;;;;15.57;6.07;;;6.00;1.00;;;;;;5139928;27;20467;-56
2022/01/30 09:11:01;;;;;;;18.57;5.90;;;5.90;1.00;;;;;;5134724;27;20470;-59
2022/01/30 09:13:30;;;;;;;21.97;5.70;;;5.90;1.00;;;;;;5138086;27;20502;-58
2022/01/30 09:15:58;;;;;;;17.87;5.50;;;5.70;1.00;;;;;;5139733;27;20454;-59
2022/01/30 09:18:27;;;;;;;20.43;5.53;;;5.90;1.00;;;;;;5139848;27;20459;-58
2022/01/30 09:20:55;;;;;;;22.70;6.07;;;5.90;1.00;;;;;;5140030;27;20466;-57
2022/01/30 09:23:29;;;;;;;15.70;6.83;;;5.90;1.00;;;;;;5139008;27;20463;-59
2022/01/30 09:25:56;;;;;;;14.93;5.60;;;5.90;1.00;;;;;;5139191;27;20539;-59
2022/01/30 09:28:23;;;;;;;17.67;7.03;;;5.90;1.00;;;;;;5136861;27;20474;-54
2022/01/30 09:30:49;;;;;;;19.90;6.73;;;5.90;1.00;;;;;;5138634;27;20888;-56
2022/01/30 09:33:16;;;;;;;22.83;5.73;;;6.00;1.00;;;;;;5137680;27;20519;-58
2022/01/30 09:35:43;;;;;;;14.57;5.57;;;5.90;1.00;;;;;;5133321;27;20508;-56
2022/01/30 09:38:10;;;;;;;18.53;5.70;;;5.90;1.00;;;;;;5138089;27;20451;-56
2022/01/30 09:40:42;;;;;;;27.47;6.30;;;5.90;1.00;;;;;;5139045;27;20525;-57
2022/01/30 09:43:10;;;;;;;16.00;6.50;;;6.00;1.00;;;;;;5139222;27;20454;-57
2022/01/30 09:45:37;;;;;;;17.63;6.43;;;5.90;1.00;;;;;;5137552;27;20434;-59
2022/01/30 09:48:05;;;;;;;19.83;6.03;;;6.00;1.00;;;;;;5119008;28;20455;-59
2022/01/30 09:50:33;;;;;;;23.83;6.87;;;6.10;1.00;;;;;;5136956;27;20543;-58
2022/01/30 09:53:00;;;;;;;24.60;6.03;;;6.20;1.00;;;;;;5119327;27;20517;-56
2022/01/30 09:55:27;;;;;;;20.80;4.97;;;6.20;1.00;;;;;;5137782;27;20458;-59
2022/01/30 09:57:55;;;;;;;17.60;5.43;;;6.40;1.00;;;;;;5137303;27;20695;-57
2022/01/30 10:00:23;;;;;;;16.03;5.73;;;6.40;1.00;;;;;;5126953;27;20465;-59
2022/01/30 10:02:52;;;;;;;20.63;5.63;;;6.30;1.00;;;;;;5137095;27;20750;-59
2022/01/30 10:05:20;;;;;;;17.17;5.80;;;6.10;1.00;;;;;;5136541;27;20459;-58
2022/01/30 10:07:50;;;;;;;33.63;7.00;;;6.20;1.00;;;;;;5137461;27;20562;-56
2022/01/30 10:10:22;;;;;;;20.67;6.33;;;6.30;1.00;;;;;;5136996;27;20444;-59
2022/01/30 10:13:17;;;;;;;17.70;5.60;;;6.80;1.00;;;;;;5137992;27;20481;-58
2022/01/30 10:15:52;;;;;;;18.30;6.00;;;7.20;1.00;;;;;;5089456;27;20462;-56
2022/01/30 10:18:32;;;;;;;23.87;5.83;;;7.30;1.00;;;;;;5155074;27;20489;-56
2022/01/30 10:21:00;;;;;;;21.83;5.50;;;7.20;1.00;;;;;;5138673;27;20501;-58
2022/01/30 10:23:34;;;;;;;22.00;5.90;;;6.90;1.00;;;;;;5123325;27;20464;-56
2022/01/30 10:26:07;;;;;;;23.83;5.90;;;6.70;1.00;;;;;;5118946;27;20495;-58
2022/01/30 10:28:40;;;;;;;15.77;5.20;;;6.60;1.00;;;;;;5133209;27;20457;-59
2022/01/30 10:31:08;;;;;;;24.93;6.73;;;6.50;1.00;;;;;;5138122;27;20520;-58
2022/01/30 10:33:40;;;;;;;26.27;6.80;;;6.80;1.00;;;;;;5137763;27;20525;-58
2022/01/30 10:36:09;;;;;;;23.17;6.10;;;7.30;1.00;;;;;;5129019;27;20451;-55
2022/01/30 10:38:39;;;;;;;23.90;6.43;;;7.90;1.00;;;;;;5117910;28;20436;-57
2022/01/30 10:41:13;;;;;;;16.17;5.30;;;8.30;1.00;;;;;;5117179;27;21948;-58
2022/01/30 10:43:57;;;;;;;15.70;5.87;;;8.20;1.00;;;;;;5119053;27;20471;-57
2022/01/30 10:46:26;;;;;;;21.63;6.77;;;8.00;1.00;;;;;;5117232;28;20487;-54
2022/01/30 10:48:55;;;;;;;22.47;6.67;;;8.00;1.00;;;;;;5117023;28;20462;-58
2022/01/30 10:51:23;;;;;;;20.10;5.80;;;8.00;1.00;;;;;;5117470;28;20517;-56
2022/01/30 10:53:51;;;;;;;17.97;6.30;;;8.00;1.00;;;;;;5117646;28;20516;-59
2022/01/30 10:56:28;;;;;;;19.70;6.00;;;8.10;1.00;;;;;;5116976;28;20506;-60
2022/01/30 10:59:11;;;;;;;26.30;6.90;;;8.50;1.00;;;;;;5117599;28;20453;-58
2022/01/30 11:01:39;;;;;;;24.90;8.00;;;8.90;1.00;;;;;;5117460;28;20430;-59
2022/01/30 11:04:07;;;;;;;28.23;7.87;;;8.10;1.00;;;;;;5118026;28;20463;-57
2022/01/30 11:06:40;;;;;;;27.70;6.10;;;7.90;1.00;;;;;;5117897;28;20503;-59
2022/01/30 11:09:11;;;;;;;19.87;7.70;;;7.50;1.00;;;;;;5117878;28;20459;-56
2022/01/30 11:11:43;;;;;;;28.23;6.67;;;7.30;1.00;;;;;;5117921;28;20503;-59
2022/01/30 11:14:22;;;;;;;25.23;6.93;;;7.10;1.00;;;;;;5117642;28;20463;-58
2022/01/30 11:17:02;;;;;;;26.90;7.70;;;7.00;1.00;;;;;;5127788;28;20460;-60
2022/01/30 11:19:32;;;;;;;21.47;6.90;;;7.10;1.00;;;;;;5136891;28;20425;-56
2022/01/30 11:22:01;;;;;;;24.90;6.90;;;6.90;1.00;;;;;;5137580;28;20490;-59
2022/01/30 11:24:30;;;;;;;22.37;7.23;;;6.90;1.00;;;;;;5135334;28;20437;-55
2022/01/30 11:26:57;;;;;;;22.97;6.77;;;6.80;1.00;;;;;;5137043;28;20551;-55
2022/01/30 11:29:25;;;;;;;24.07;7.87;;;6.60;1.00;;;;;;5137793;28;20530;-58
2022/01/30 11:31:52;;;;;;;29.53;7.30;;;6.70;1.00;;;;;;5137793;28;20486;-59
2022/01/30 11:34:20;;;;;;;26.17;7.80;;;6.50;1.00;;;;;;5136359;28;20437;-58
2022/01/30 11:36:49;;;;;;;28.07;7.57;;;6.60;1.00;;;;;;5136405;28;20500;-58
2022/01/30 11:39:20;;;;;;;26.83;8.90;;;6.40;1.00;;;;;;5136367;28;20557;-58
2022/01/30 11:42:11;;;;;;;25.53;7.20;;;6.40;1.00;;;;;;5136897;28;20534;-57
2022/01/30 11:44:41;;;;;;;25.00;7.10;;;6.90;1.00;;;;;;5136424;28;20458;-59
2022/01/30 11:47:21;;;;;;;22.57;6.20;;;7.60;1.00;;;;;;5137462;28;20939;-58
2022/01/30 11:50:04;;;;;;;26.00;6.30;;;7.50;1.00;;;;;;5137438;27;20511;-59
2022/01/30 11:52:57;;;;;;;29.07;6.60;;;7.20;1.00;;;;;;5134290;27;20467;-58
2022/01/30 11:55:49;;;;;;;32.33;8.67;;;6.90;1.00;;;;;;5136982;28;20557;-58
2022/01/30 11:58:55;;;;;;;30.83;6.83;;;6.90;1.00;;;;;;5137326;28;20459;-59
2022/01/30 12:01:40;;;;;;;28.87;8.50;;;7.00;1.00;;;;;;5135767;28;20465;-57
2022/01/30 12:04:13;;;;;;;24.57;6.63;;;7.00;1.00;;;;;;5136968;28;20530;-57
2022/01/30 12:06:44;;;;;;;33.77;8.10;;;6.80;1.00;;;;;;5137723;28;20547;-55
2022/01/30 12:09:29;;;;;;;25.50;9.03;;;7.10;1.00;;;;;;5139424;27;20437;-57
2022/01/30 12:11:58;;;;;;;30.60;7.07;;;7.60;1.00;;;;;;5141699;27;20557;-56
2022/01/30 12:14:59;;;;;;;31.97;8.20;;;7.70;1.00;;;;;;5140744;27;20463;-59
2022/01/30 12:18:02;;;;;;;30.23;6.83;;;7.80;1.00;;;;;;5056333;28;20541;-58
2022/01/30 12:20:31;;;;;;;26.40;7.50;;;8.60;1.00;;;;;;5140493;27;20462;-57
2022/01/30 12:22:59;;;;;;;18.23;8.73;;;9.00;1.00;;;;;;5140732;27;20744;-58
2022/01/30 12:25:37;;;;;;;27.20;8.00;;;8.80;1.00;;;;;;5140984;27;20433;-56
2022/01/30 12:28:13;;;;;;;26.67;6.60;;;8.70;99.90;;;;;;5140584;27;20468;-56
2022/01/30 12:30:50;;;;;;;21.23;8.10;;;8.60;99.90;;;;;;5139684;27;20484;-59
2022/01/30 12:33:41;;;;;;;28.83;7.73;;;8.00;99.90;;;;;;5139702;27;20421;-57
2022/01/30 12:36:19;;;;;;;19.57;8.80;;;7.30;99.90;;;;;;5137436;27;20490;-54
2022/01/30 12:38:56;;;;;;;19.60;6.53;;;7.30;99.90;;;;;;5138911;27;20433;-53
2022/01/30 12:41:25;;;;;;;21.20;6.23;;;7.20;99.90;;;;;;5138311;27;20452;-54
2022/01/30 12:43:55;;;;;;;23.30;7.57;;;7.00;99.90;;;;;;5139434;27;20447;-59
2022/01/30 12:46:25;;;;;;;26.93;7.00;;;7.00;99.90;;;;;;5140417;27;20446;-57
2022/01/30 12:49:18;;;;;;;29.70;6.80;;;6.80;99.90;;;;;;5140400;27;20425;-57
2022/01/30 12:51:49;;;;;;;29.33;6.90;;;6.90;99.90;;;;;;5121418;27;20831;-55
2022/01/30 12:54:21;;;;;;;21.97;6.40;;;6.80;99.90;;;;;;5140438;27;20876;-56
2022/01/30 12:56:52;;;;;;;23.67;7.73;;;6.90;99.90;;;;;;5139539;27;20443;-55
2022/01/30 12:59:23;;;;;;;30.97;7.13;;;6.90;99.90;;;;;;5139671;27;20459;-55
2022/01/30 13:01:51;;;;;;;29.90;9.23;;;6.90;99.90;;;;;;5137268;27;20454;-55
2022/01/30 13:04:24;;;;;;;24.67;8.53;;;7.00;99.90;;;;;;5140846;27;20952;-55
2022/01/30 13:06:55;;;;;;;28.80;7.53;;;7.00;99.90;;;;;;5140325;27;20490;-56
2022/01/30 13:09:25;;;;;;;24.70;8.97;;;6.90;99.90;;;;;;5140384;27;20467;-51
2022/01/30 13:11:53;;;;;;;25.63;7.00;;;6.80;99.90;;;;;;5140272;27;20864;-53
2022/01/30 13:14:20;;;;;;;28.90;7.30;;;6.70;99.90;;;;;;5139821;27;20459;-59
2022/01/30 13:16:50;;;;;;;29.33;6.77;;;6.80;1.00;;;;;;5140350;27;20493;-59
2022/01/30 13:19:32;;;;;;;26.90;7.50;;;6.60;1.00;;;;;;5140124;27;20462;-60
2022/01/30 13:22:01;;;;;;;21.83;6.57;;;6.70;1.00;;;;;;5136221;27;20438;-57
2022/01/30 13:24:29;;;;;;;32.20;9.30;;;6.50;1.00;;;;;;5139083;27;20519;-56
2022/01/30 13:26:58;;;;;;;33.03;8.97;;;6.50;1.00;;;;;;5138643;27;20888;-58
2022/01/30 13:29:27;;;;;;;25.60;7.00;;;6.60;1.00;;;;;;5139541;27;20754;-56
2022/01/30 13:31:56;;;;;;;23.23;7.37;;;6.60;1.00;;;;;;5139982;27;20519;-59
2022/01/30 13:34:26;;;;;;;36.50;11.60;;;6.60;1.00;;;;;;5138949;27;20462;-59
2022/01/30 13:37:02;;;;;;;30.67;7.97;;;6.70;1.00;;;;;;5121851;27;20524;-59
2022/01/30 13:39:36;;;;;;;30.93;8.60;;;6.80;1.00;;;;;;5118189;28;20549;-58
2022/01/30 13:48:09;;;;;;;21.80;6.20;;;6.70;99.90;;;;;;5107016;27;20838;-57
2022/01/30 13:50:44;;;;;;;21.10;6.83;;;6.80;99.90;;;;;;5139063;27;20462;-55
2022/01/30 13:53:14;;;;;;;31.10;8.07;;;6.80;99.90;;;;;;5138116;27;20458;-57
2022/01/30 13:56:02;;;;;;;25.20;6.43;;;6.80;99.90;;;;;;5138986;27;20437;-56